FIN5SK EFHK-EGCC
Flight info
| Callsign | FIN5SK |
|---|---|
| Flight time | 2h 48m |
| Altitude | 36000 |
| Route | KUVEM Y366 USITU DCT LUPET DCT AMSEV DCT VAXIT DCT REKNA DCT TILNI TILN1M |
| Aircraft | A321/M-SDE3FGHIRWY/LB1 |
Departure
| Time | 2026-05-05 08:55 |
|---|---|
| Airport | Helsinki Vantaa Airport (EFHK) |
Arrival
| Time | 2026-05-05 11:43 |
|---|---|
| Airport | Manchester Airport (EGCC) |
| Time | Latitude | Longitude | Altitude | Speed | Heading |
|---|---|---|---|---|---|
| 2026-05-05 08:22 | 60.31504 | 24.95715 | 168 ft | 0 kts | 137° |
| 2026-05-05 08:45 | 60.31507 | 24.95710 | 167 ft | 2 kts | 137° |
| 2026-05-05 08:45 | 60.31521 | 24.95684 | 167 ft | 3 kts | 137° |
| 2026-05-05 08:46 | 60.31534 | 24.95659 | 167 ft | 2 kts | 137° |
| 2026-05-05 08:46 | 60.31547 | 24.95633 | 168 ft | 3 kts | 118° |
| 2026-05-05 08:46 | 60.31553 | 24.95600 | 169 ft | 3 kts | 81° |
| 2026-05-05 08:46 | 60.31546 | 24.95564 | 169 ft | 3 kts | 53° |
| 2026-05-05 08:47 | 60.31535 | 24.95537 | 169 ft | 1 kts | 47° |
| 2026-05-05 08:47 | 60.31531 | 24.95528 | 169 ft | 0 kts | 47° |
| 2026-05-05 08:50 | 60.31533 | 24.95531 | 169 ft | 2 kts | 47° |
| 2026-05-05 08:50 | 60.31562 | 24.95592 | 170 ft | 10 kts | 45° |
| 2026-05-05 08:50 | 60.31635 | 24.95711 | 172 ft | 16 kts | 31° |
| 2026-05-05 08:50 | 60.31730 | 24.95898 | 170 ft | 22 kts | 48° |
| 2026-05-05 08:51 | 60.31816 | 24.96092 | 171 ft | 14 kts | 45° |
| 2026-05-05 08:51 | 60.31909 | 24.96060 | 171 ft | 17 kts | 316° |
| 2026-05-05 08:51 | 60.32001 | 24.95883 | 173 ft | 20 kts | 316° |
| 2026-05-05 08:51 | 60.32111 | 24.95684 | 173 ft | 24 kts | 317° |
| 2026-05-05 08:52 | 60.32240 | 24.95439 | 175 ft | 27 kts | 318° |
| 2026-05-05 08:52 | 60.32399 | 24.95226 | 178 ft | 29 kts | 341° |
| 2026-05-05 08:52 | 60.32593 | 24.95101 | 180 ft | 30 kts | 342° |
| 2026-05-05 08:52 | 60.32784 | 24.94979 | 177 ft | 26 kts | 342° |
| 2026-05-05 08:53 | 60.32946 | 24.94809 | 178 ft | 26 kts | 315° |
| 2026-05-05 08:53 | 60.33067 | 24.94581 | 192 ft | 11 kts | 317° |
| 2026-05-05 08:53 | 60.33111 | 24.94485 | 196 ft | 7 kts | 295° |
| 2026-05-05 08:53 | 60.33106 | 24.94383 | 198 ft | 8 kts | 241° |
| 2026-05-05 08:54 | 60.33075 | 24.94312 | 197 ft | 0 kts | 227° |
| 2026-05-05 08:54 | 60.33070 | 24.94301 | 196 ft | 6 kts | 227° |
| 2026-05-05 08:54 | 60.32959 | 24.94054 | 192 ft | 54 kts | 227° |
| 2026-05-05 08:54 | 60.32544 | 24.93143 | 178 ft | 120 kts | 227° |
| 2026-05-05 08:55 | 60.31872 | 24.91677 | 361 ft | 153 kts | 229° |
| 2026-05-05 08:55 | 60.31136 | 24.90131 | 1024 ft | 153 kts | 232° |
| 2026-05-05 08:55 | 60.30421 | 24.88563 | 1796 ft | 149 kts | 236° |
| 2026-05-05 08:55 | 60.29977 | 24.86612 | 2185 ft | 163 kts | 257° |
| 2026-05-05 08:56 | 60.29815 | 24.84220 | 2430 ft | 184 kts | 270° |
| 2026-05-05 08:56 | 60.30016 | 24.81497 | 2651 ft | 210 kts | 283° |
| 2026-05-05 08:56 | 60.30342 | 24.78466 | 3065 ft | 232 kts | 274° |
| 2026-05-05 08:56 | 60.30115 | 24.75162 | 3688 ft | 246 kts | 254° |
| 2026-05-05 08:57 | 60.29545 | 24.71921 | 4687 ft | 244 kts | 249° |
| 2026-05-05 08:57 | 60.28868 | 24.68825 | 5778 ft | 239 kts | 246° |
| 2026-05-05 08:57 | 60.28166 | 24.65819 | 6780 ft | 236 kts | 246° |
| 2026-05-05 08:57 | 60.27487 | 24.62873 | 7701 ft | 234 kts | 247° |
| 2026-05-05 08:58 | 60.26819 | 24.59889 | 8628 ft | 233 kts | 247° |
| 2026-05-05 08:58 | 60.26172 | 24.56906 | 9538 ft | 232 kts | 248° |
| 2026-05-05 08:58 | 60.25538 | 24.53914 | 10334 ft | 233 kts | 248° |
| 2026-05-05 08:58 | 60.24906 | 24.50901 | 11087 ft | 234 kts | 248° |
| 2026-05-05 08:59 | 60.24334 | 24.47815 | 11811 ft | 238 kts | 256° |
| 2026-05-05 08:59 | 60.24097 | 24.45561 | 12019 ft | 251 kts | 258° |
| 2026-05-05 08:59 | 60.23749 | 24.41959 | 12192 ft | 274 kts | 258° |
| 2026-05-05 08:59 | 60.23382 | 24.38083 | 12530 ft | 288 kts | 258° |
| 2026-05-05 09:00 | 60.23005 | 24.34091 | 13157 ft | 292 kts | 258° |
| 2026-05-05 09:00 | 60.22620 | 24.30048 | 13842 ft | 295 kts | 258° |
| 2026-05-05 09:00 | 60.22229 | 24.25971 | 14474 ft | 298 kts | 258° |
| 2026-05-05 09:00 | 60.21831 | 24.21857 | 15123 ft | 301 kts | 258° |
| 2026-05-05 09:01 | 60.21427 | 24.17710 | 15770 ft | 304 kts | 258° |
| 2026-05-05 09:01 | 60.21022 | 24.13584 | 16412 ft | 306 kts | 258° |
| 2026-05-05 09:01 | 60.20606 | 24.09361 | 17061 ft | 309 kts | 258° |
| 2026-05-05 09:01 | 60.20184 | 24.05095 | 17711 ft | 312 kts | 257° |
| 2026-05-05 09:02 | 60.19757 | 24.00801 | 18296 ft | 315 kts | 257° |
| 2026-05-05 09:02 | 60.19326 | 23.96465 | 18855 ft | 317 kts | 257° |
| 2026-05-05 09:02 | 60.18885 | 23.92106 | 19418 ft | 319 kts | 257° |
| 2026-05-05 09:02 | 60.18395 | 23.87738 | 19979 ft | 322 kts | 256° |
| 2026-05-05 09:03 | 60.17871 | 23.83351 | 20542 ft | 324 kts | 255° |
| 2026-05-05 09:03 | 60.17331 | 23.78941 | 21103 ft | 326 kts | 255° |
| 2026-05-05 09:03 | 60.16785 | 23.74502 | 21658 ft | 329 kts | 255° |
| 2026-05-05 09:03 | 60.16240 | 23.70035 | 22202 ft | 331 kts | 255° |
| 2026-05-05 09:04 | 60.15692 | 23.65529 | 22721 ft | 333 kts | 255° |
| 2026-05-05 09:04 | 60.15143 | 23.60998 | 23245 ft | 336 kts | 255° |
| 2026-05-05 09:04 | 60.14589 | 23.56428 | 23669 ft | 338 kts | 255° |
| 2026-05-05 09:04 | 60.14031 | 23.51827 | 24087 ft | 340 kts | 255° |
| 2026-05-05 09:05 | 60.13468 | 23.47206 | 24504 ft | 342 kts | 255° |
| 2026-05-05 09:05 | 60.12908 | 23.42624 | 24900 ft | 344 kts | 255° |
| 2026-05-05 09:05 | 60.12331 | 23.37943 | 25305 ft | 346 kts | 255° |
| 2026-05-05 09:05 | 60.11752 | 23.33248 | 25709 ft | 348 kts | 255° |
| 2026-05-05 09:06 | 60.11170 | 23.28519 | 26100 ft | 350 kts | 255° |
| 2026-05-05 09:06 | 60.10583 | 23.23766 | 26514 ft | 352 kts | 255° |
| 2026-05-05 09:06 | 60.09990 | 23.18982 | 26898 ft | 354 kts | 255° |
| 2026-05-05 09:06 | 60.09390 | 23.14185 | 27288 ft | 356 kts | 255° |
| 2026-05-05 09:07 | 60.08784 | 23.09356 | 27669 ft | 358 kts | 255° |
| 2026-05-05 09:07 | 60.08176 | 23.04504 | 28049 ft | 360 kts | 255° |
| 2026-05-05 09:07 | 60.07564 | 22.99620 | 28421 ft | 362 kts | 255° |
| 2026-05-05 09:07 | 60.06946 | 22.94709 | 28776 ft | 364 kts | 255° |
| 2026-05-05 09:08 | 60.06324 | 22.89790 | 29127 ft | 366 kts | 255° |
| 2026-05-05 09:08 | 60.05694 | 22.84829 | 29477 ft | 368 kts | 255° |
| 2026-05-05 09:08 | 60.05057 | 22.79850 | 29831 ft | 370 kts | 254° |
| 2026-05-05 09:08 | 60.04413 | 22.74847 | 30141 ft | 372 kts | 254° |
| 2026-05-05 09:09 | 60.03762 | 22.69813 | 30428 ft | 374 kts | 254° |
| 2026-05-05 09:09 | 60.03113 | 22.64772 | 30810 ft | 373 kts | 254° |
| 2026-05-05 09:09 | 60.02468 | 22.59765 | 31217 ft | 372 kts | 254° |
| 2026-05-05 09:09 | 60.01820 | 22.54750 | 31604 ft | 372 kts | 254° |
| 2026-05-05 09:10 | 60.01172 | 22.49744 | 31984 ft | 371 kts | 254° |
| 2026-05-05 09:10 | 60.00524 | 22.44758 | 32359 ft | 371 kts | 254° |
| 2026-05-05 09:10 | 59.99869 | 22.39769 | 32726 ft | 371 kts | 254° |
| 2026-05-05 09:10 | 59.99212 | 22.34802 | 33085 ft | 370 kts | 254° |
| 2026-05-05 09:11 | 59.98554 | 22.29832 | 33442 ft | 370 kts | 254° |
| 2026-05-05 09:11 | 59.97895 | 22.24868 | 33796 ft | 370 kts | 254° |
| 2026-05-05 09:11 | 59.97238 | 22.19911 | 34071 ft | 370 kts | 254° |
| 2026-05-05 09:11 | 59.96587 | 22.14997 | 34299 ft | 371 kts | 254° |
| 2026-05-05 09:12 | 59.95921 | 22.10001 | 34522 ft | 373 kts | 254° |
| 2026-05-05 09:12 | 59.95252 | 22.04997 | 34746 ft | 374 kts | 254° |
| 2026-05-05 09:12 | 59.94577 | 21.99971 | 34960 ft | 376 kts | 254° |
| 2026-05-05 09:12 | 59.93898 | 21.94933 | 35183 ft | 377 kts | 254° |
| 2026-05-05 09:13 | 59.93213 | 21.89873 | 35409 ft | 379 kts | 254° |
| 2026-05-05 09:13 | 59.92524 | 21.84792 | 35617 ft | 380 kts | 254° |
| 2026-05-05 09:13 | 59.91830 | 21.79702 | 35771 ft | 382 kts | 254° |
| 2026-05-05 09:14 | 59.90433 | 21.69508 | 35808 ft | 381 kts | 254° |
| 2026-05-05 09:14 | 59.89035 | 21.59333 | 35806 ft | 381 kts | 254° |
| 2026-05-05 09:15 | 59.87625 | 21.49157 | 35808 ft | 381 kts | 253° |
| 2026-05-05 09:15 | 59.86196 | 21.39001 | 35811 ft | 381 kts | 253° |
| 2026-05-05 09:16 | 59.84774 | 21.28848 | 35814 ft | 381 kts | 253° |
| 2026-05-05 09:16 | 59.83343 | 21.18684 | 35819 ft | 382 kts | 253° |
| 2026-05-05 09:17 | 59.81903 | 21.08510 | 35822 ft | 382 kts | 253° |
| 2026-05-05 09:17 | 59.80452 | 20.98355 | 35825 ft | 382 kts | 253° |
| 2026-05-05 09:18 | 59.78996 | 20.88193 | 35828 ft | 382 kts | 253° |
| 2026-05-05 09:18 | 59.77522 | 20.78055 | 35829 ft | 382 kts | 253° |
| 2026-05-05 09:19 | 59.76185 | 20.68916 | 35832 ft | 382 kts | 253° |
| 2026-05-05 09:19 | 59.74703 | 20.58795 | 35833 ft | 382 kts | 253° |
| 2026-05-05 09:20 | 59.73229 | 20.48744 | 35829 ft | 382 kts | 253° |
| 2026-05-05 09:20 | 59.71736 | 20.38632 | 35832 ft | 382 kts | 253° |
| 2026-05-05 09:21 | 59.70230 | 20.28527 | 35833 ft | 383 kts | 253° |
| 2026-05-05 09:21 | 59.68712 | 20.18434 | 35837 ft | 383 kts | 253° |
| 2026-05-05 09:22 | 59.67186 | 20.08340 | 35838 ft | 383 kts | 253° |
| 2026-05-05 09:22 | 59.65649 | 19.98238 | 35843 ft | 383 kts | 253° |
| 2026-05-05 09:23 | 59.64107 | 19.88153 | 35840 ft | 383 kts | 253° |
| 2026-05-05 09:23 | 59.62722 | 19.77963 | 35842 ft | 384 kts | 255° |
| 2026-05-05 09:24 | 59.61456 | 19.67725 | 35843 ft | 384 kts | 256° |
| 2026-05-05 09:24 | 59.60180 | 19.57474 | 35840 ft | 384 kts | 255° |
| 2026-05-05 09:25 | 59.58866 | 19.47260 | 35840 ft | 384 kts | 255° |
| 2026-05-05 09:25 | 59.57534 | 19.37110 | 35841 ft | 384 kts | 255° |
| 2026-05-05 09:26 | 59.56195 | 19.26905 | 35840 ft | 384 kts | 255° |
| 2026-05-05 09:26 | 59.54845 | 19.16710 | 35838 ft | 384 kts | 255° |
| 2026-05-05 09:27 | 59.53489 | 19.06521 | 35838 ft | 384 kts | 255° |
| 2026-05-05 09:27 | 59.52124 | 18.96345 | 35832 ft | 384 kts | 255° |
| 2026-05-05 09:28 | 59.50753 | 18.86176 | 35829 ft | 384 kts | 255° |
| 2026-05-05 09:28 | 59.49373 | 18.76005 | 35827 ft | 385 kts | 255° |
| 2026-05-05 09:29 | 59.47984 | 18.65844 | 35826 ft | 385 kts | 255° |
| 2026-05-05 09:29 | 59.46616 | 18.55867 | 35828 ft | 385 kts | 255° |
| 2026-05-05 09:30 | 59.45211 | 18.45716 | 35831 ft | 385 kts | 255° |
| 2026-05-05 09:30 | 59.43812 | 18.35647 | 35837 ft | 385 kts | 254° |
| 2026-05-05 09:31 | 59.42387 | 18.25487 | 35843 ft | 385 kts | 254° |
| 2026-05-05 09:31 | 59.40959 | 18.15363 | 35849 ft | 385 kts | 254° |
| 2026-05-05 09:32 | 59.39521 | 18.05244 | 35853 ft | 385 kts | 254° |
| 2026-05-05 09:32 | 59.38082 | 17.95137 | 35854 ft | 385 kts | 254° |
| 2026-05-05 09:33 | 59.36631 | 17.85035 | 35854 ft | 385 kts | 254° |
| 2026-05-05 09:33 | 59.35172 | 17.74936 | 35852 ft | 385 kts | 254° |
| 2026-05-05 09:34 | 59.33706 | 17.64853 | 35843 ft | 385 kts | 254° |
| 2026-05-05 09:34 | 59.32228 | 17.54785 | 35839 ft | 385 kts | 254° |
| 2026-05-05 09:35 | 59.30745 | 17.44732 | 35832 ft | 385 kts | 254° |
| 2026-05-05 09:35 | 59.28508 | 17.29657 | 35831 ft | 385 kts | 254° |
| 2026-05-05 09:36 | 59.27009 | 17.19605 | 35832 ft | 385 kts | 253° |
| 2026-05-05 09:36 | 59.25498 | 17.09588 | 35832 ft | 385 kts | 253° |
| 2026-05-05 09:37 | 59.23985 | 16.99559 | 35837 ft | 385 kts | 253° |
| 2026-05-05 09:37 | 59.22460 | 16.89543 | 35836 ft | 385 kts | 253° |
| 2026-05-05 09:38 | 59.20939 | 16.79603 | 35843 ft | 385 kts | 253° |
| 2026-05-05 09:38 | 59.19396 | 16.69604 | 35847 ft | 385 kts | 253° |
| 2026-05-05 09:39 | 59.17848 | 16.59606 | 35848 ft | 385 kts | 253° |
| 2026-05-05 09:39 | 59.16289 | 16.49610 | 35853 ft | 385 kts | 253° |
| 2026-05-05 09:40 | 59.14723 | 16.39624 | 35856 ft | 385 kts | 253° |
| 2026-05-05 09:40 | 59.13152 | 16.29648 | 35858 ft | 385 kts | 253° |
| 2026-05-05 09:41 | 59.11568 | 16.19671 | 35862 ft | 385 kts | 253° |
| 2026-05-05 09:41 | 59.09980 | 16.09709 | 35865 ft | 385 kts | 253° |
| 2026-05-05 09:42 | 59.08396 | 15.99826 | 35867 ft | 385 kts | 253° |
| 2026-05-05 09:42 | 59.06788 | 15.89878 | 35867 ft | 385 kts | 253° |
| 2026-05-05 09:43 | 59.05175 | 15.79942 | 35869 ft | 386 kts | 253° |
| 2026-05-05 09:43 | 59.03556 | 15.70006 | 35871 ft | 386 kts | 253° |
| 2026-05-05 09:44 | 59.01931 | 15.60080 | 35876 ft | 386 kts | 252° |
| 2026-05-05 09:44 | 59.00293 | 15.50162 | 35879 ft | 386 kts | 252° |
| 2026-05-05 09:45 | 58.98641 | 15.40224 | 35884 ft | 387 kts | 252° |
| 2026-05-05 09:45 | 58.97000 | 15.30369 | 35891 ft | 387 kts | 252° |
| 2026-05-05 09:46 | 58.95336 | 15.20452 | 35895 ft | 387 kts | 252° |
| 2026-05-05 09:46 | 58.93667 | 15.10538 | 35894 ft | 387 kts | 252° |
| 2026-05-05 09:47 | 58.91987 | 15.00640 | 35903 ft | 387 kts | 252° |
| 2026-05-05 09:47 | 58.90300 | 14.90738 | 35906 ft | 387 kts | 252° |
| 2026-05-05 09:48 | 58.88604 | 14.80856 | 35913 ft | 387 kts | 252° |
| 2026-05-05 09:48 | 58.86901 | 14.70997 | 35914 ft | 387 kts | 252° |
| 2026-05-05 09:49 | 58.85192 | 14.61139 | 35913 ft | 387 kts | 252° |
| 2026-05-05 09:49 | 58.83476 | 14.51293 | 35918 ft | 387 kts | 252° |
| 2026-05-05 09:50 | 58.82044 | 14.43129 | 35921 ft | 387 kts | 252° |
| 2026-05-05 09:50 | 58.80027 | 14.31709 | 35921 ft | 387 kts | 252° |
| 2026-05-05 09:51 | 58.78294 | 14.21893 | 35927 ft | 387 kts | 252° |
| 2026-05-05 09:51 | 58.76551 | 14.12076 | 35927 ft | 387 kts | 251° |
| 2026-05-05 09:52 | 58.75082 | 14.03865 | 35932 ft | 387 kts | 251° |
| 2026-05-05 09:52 | 58.73328 | 13.94128 | 35935 ft | 387 kts | 251° |
| 2026-05-05 09:53 | 58.71555 | 13.84331 | 35938 ft | 388 kts | 251° |
| 2026-05-05 09:53 | 58.69778 | 13.74534 | 35935 ft | 388 kts | 251° |
| 2026-05-05 09:54 | 58.67998 | 13.64761 | 35936 ft | 388 kts | 251° |
| 2026-05-05 09:54 | 58.66202 | 13.54958 | 35940 ft | 388 kts | 251° |
| 2026-05-05 09:55 | 58.64401 | 13.45200 | 35939 ft | 388 kts | 251° |
| 2026-05-05 09:55 | 58.62594 | 13.35440 | 35938 ft | 388 kts | 251° |
| 2026-05-05 09:56 | 58.60773 | 13.25684 | 35940 ft | 388 kts | 251° |
| 2026-05-05 09:56 | 58.58944 | 13.15951 | 35943 ft | 388 kts | 251° |
| 2026-05-05 09:57 | 58.57112 | 13.06213 | 35939 ft | 389 kts | 251° |
| 2026-05-05 09:57 | 58.55272 | 12.96471 | 35938 ft | 389 kts | 251° |
| 2026-05-05 09:58 | 58.53442 | 12.86809 | 35936 ft | 389 kts | 251° |
| 2026-05-05 09:58 | 58.51579 | 12.77083 | 35934 ft | 389 kts | 251° |
| 2026-05-05 09:59 | 58.49716 | 12.67369 | 35932 ft | 389 kts | 251° |
| 2026-05-05 09:59 | 58.47841 | 12.57652 | 35934 ft | 390 kts | 250° |
| 2026-05-05 10:00 | 58.45954 | 12.47952 | 35935 ft | 389 kts | 250° |
| 2026-05-05 10:00 | 58.44061 | 12.38262 | 35937 ft | 389 kts | 250° |
| 2026-05-05 10:01 | 58.42164 | 12.28588 | 35936 ft | 389 kts | 250° |
| 2026-05-05 10:01 | 58.40262 | 12.18927 | 35938 ft | 390 kts | 250° |
| 2026-05-05 10:02 | 58.38383 | 12.09416 | 35938 ft | 390 kts | 250° |
| 2026-05-05 10:02 | 58.36460 | 11.99756 | 35941 ft | 390 kts | 250° |
| 2026-05-05 10:03 | 58.34530 | 11.90108 | 35943 ft | 390 kts | 250° |
| 2026-05-05 10:03 | 58.32608 | 11.80525 | 35951 ft | 390 kts | 250° |
| 2026-05-05 10:04 | 58.30668 | 11.70903 | 35970 ft | 390 kts | 250° |
| 2026-05-05 10:04 | 58.28721 | 11.61280 | 35973 ft | 390 kts | 250° |
| 2026-05-05 10:05 | 58.26765 | 11.51672 | 35978 ft | 390 kts | 250° |
| 2026-05-05 10:05 | 58.24800 | 11.42059 | 35979 ft | 390 kts | 250° |
| 2026-05-05 10:06 | 58.22831 | 11.32460 | 35979 ft | 391 kts | 250° |
| 2026-05-05 10:06 | 58.20847 | 11.22869 | 35981 ft | 391 kts | 250° |
| 2026-05-05 10:07 | 58.18852 | 11.13272 | 35986 ft | 391 kts | 250° |
| 2026-05-05 10:07 | 58.16855 | 11.03700 | 35994 ft | 391 kts | 249° |
| 2026-05-05 10:08 | 58.14847 | 10.94124 | 35995 ft | 391 kts | 249° |
| 2026-05-05 10:08 | 58.12840 | 10.84566 | 35993 ft | 391 kts | 249° |
| 2026-05-05 10:09 | 58.10835 | 10.75075 | 35995 ft | 391 kts | 249° |
| 2026-05-05 10:09 | 58.08801 | 10.65539 | 35990 ft | 392 kts | 249° |
| 2026-05-05 10:10 | 58.06758 | 10.55988 | 35985 ft | 392 kts | 249° |
| 2026-05-05 10:10 | 58.04714 | 10.46435 | 35991 ft | 392 kts | 249° |
| 2026-05-05 10:11 | 58.02655 | 10.36894 | 35993 ft | 393 kts | 249° |
| 2026-05-05 10:11 | 58.00594 | 10.27356 | 35995 ft | 393 kts | 249° |
| 2026-05-05 10:12 | 57.98526 | 10.17820 | 35996 ft | 393 kts | 249° |
| 2026-05-05 10:12 | 57.96447 | 10.08305 | 35996 ft | 393 kts | 249° |
| 2026-05-05 10:13 | 57.94355 | 9.98781 | 35997 ft | 393 kts | 249° |
| 2026-05-05 10:13 | 57.92255 | 9.89271 | 35998 ft | 393 kts | 249° |
| 2026-05-05 10:14 | 57.90171 | 9.79836 | 35995 ft | 393 kts | 249° |
| 2026-05-05 10:14 | 57.88060 | 9.70350 | 35997 ft | 393 kts | 249° |
| 2026-05-05 10:15 | 57.85944 | 9.60873 | 35996 ft | 393 kts | 249° |
| 2026-05-05 10:15 | 57.83816 | 9.51396 | 35997 ft | 394 kts | 249° |
| 2026-05-05 10:16 | 57.81678 | 9.41945 | 35997 ft | 394 kts | 249° |
| 2026-05-05 10:16 | 57.79534 | 9.32490 | 35996 ft | 394 kts | 249° |
| 2026-05-05 10:17 | 57.77387 | 9.23048 | 35999 ft | 394 kts | 248° |
| 2026-05-05 10:17 | 57.75228 | 9.13606 | 36005 ft | 394 kts | 248° |
| 2026-05-05 10:18 | 57.73063 | 9.04186 | 36001 ft | 394 kts | 248° |
| 2026-05-05 10:18 | 57.70893 | 8.94761 | 36000 ft | 394 kts | 248° |
| 2026-05-05 10:19 | 57.68712 | 8.85354 | 36006 ft | 395 kts | 248° |
| 2026-05-05 10:19 | 57.66461 | 8.76060 | 36003 ft | 396 kts | 246° |
| 2026-05-05 10:20 | 57.63942 | 8.66915 | 36010 ft | 396 kts | 244° |
| 2026-05-05 10:20 | 57.61344 | 8.57838 | 36009 ft | 397 kts | 244° |
| 2026-05-05 10:21 | 57.58772 | 8.48733 | 36014 ft | 397 kts | 245° |
| 2026-05-05 10:21 | 57.56226 | 8.39612 | 36012 ft | 397 kts | 245° |
| 2026-05-05 10:22 | 57.53678 | 8.30484 | 36011 ft | 397 kts | 244° |
| 2026-05-05 10:22 | 57.51111 | 8.21391 | 36010 ft | 398 kts | 244° |
| 2026-05-05 10:23 | 57.48532 | 8.12294 | 36013 ft | 398 kts | 244° |
| 2026-05-05 10:23 | 57.45967 | 8.03251 | 36014 ft | 398 kts | 244° |
| 2026-05-05 10:24 | 57.43371 | 7.94163 | 36022 ft | 398 kts | 244° |
| 2026-05-05 10:24 | 57.40769 | 7.85088 | 36022 ft | 399 kts | 244° |
| 2026-05-05 10:25 | 57.38162 | 7.76000 | 36030 ft | 399 kts | 244° |
| 2026-05-05 10:25 | 57.35544 | 7.66922 | 36029 ft | 399 kts | 244° |
| 2026-05-05 10:26 | 57.32911 | 7.57863 | 36033 ft | 400 kts | 244° |
| 2026-05-05 10:26 | 57.30336 | 7.49020 | 36041 ft | 400 kts | 244° |
| 2026-05-05 10:27 | 57.27691 | 7.39970 | 36035 ft | 400 kts | 244° |
| 2026-05-05 10:27 | 57.25041 | 7.30931 | 36040 ft | 400 kts | 244° |
| 2026-05-05 10:28 | 57.22385 | 7.21902 | 36038 ft | 400 kts | 244° |
| 2026-05-05 10:28 | 57.19718 | 7.12881 | 36038 ft | 400 kts | 244° |
| 2026-05-05 10:29 | 57.17063 | 7.03928 | 36041 ft | 400 kts | 244° |
| 2026-05-05 10:29 | 57.14388 | 6.94934 | 36040 ft | 400 kts | 243° |
| 2026-05-05 10:30 | 57.11701 | 6.85952 | 36041 ft | 400 kts | 243° |
| 2026-05-05 10:30 | 57.09012 | 6.76993 | 36037 ft | 400 kts | 243° |
| 2026-05-05 10:31 | 57.06313 | 6.68026 | 36035 ft | 401 kts | 243° |
| 2026-05-05 10:31 | 57.03605 | 6.59073 | 36040 ft | 401 kts | 243° |
| 2026-05-05 10:32 | 57.00889 | 6.50121 | 36043 ft | 402 kts | 243° |
| 2026-05-05 10:32 | 56.98162 | 6.41175 | 36045 ft | 402 kts | 243° |
| 2026-05-05 10:33 | 56.95420 | 6.32221 | 36044 ft | 402 kts | 243° |
| 2026-05-05 10:33 | 56.92691 | 6.23346 | 36046 ft | 403 kts | 243° |
| 2026-05-05 10:34 | 56.89938 | 6.14405 | 36048 ft | 403 kts | 243° |
| 2026-05-05 10:34 | 56.87181 | 6.05470 | 36051 ft | 404 kts | 243° |
| 2026-05-05 10:35 | 56.84413 | 5.96545 | 36050 ft | 404 kts | 243° |
| 2026-05-05 10:35 | 56.81626 | 5.87623 | 36051 ft | 404 kts | 243° |
| 2026-05-05 10:36 | 56.78837 | 5.78731 | 36045 ft | 404 kts | 242° |
| 2026-05-05 10:36 | 56.76043 | 5.69845 | 36048 ft | 404 kts | 242° |
| 2026-05-05 10:37 | 56.73248 | 5.60967 | 36047 ft | 404 kts | 242° |
| 2026-05-05 10:37 | 56.70449 | 5.52108 | 36045 ft | 404 kts | 242° |
| 2026-05-05 10:38 | 56.67635 | 5.43245 | 36040 ft | 404 kts | 242° |
| 2026-05-05 10:38 | 56.64827 | 5.34403 | 36039 ft | 404 kts | 242° |
| 2026-05-05 10:39 | 56.61998 | 5.25561 | 36037 ft | 405 kts | 242° |
| 2026-05-05 10:39 | 56.59174 | 5.16787 | 36038 ft | 405 kts | 242° |
| 2026-05-05 10:40 | 56.56329 | 5.07969 | 36040 ft | 405 kts | 242° |
| 2026-05-05 10:40 | 56.53540 | 4.99100 | 36036 ft | 404 kts | 248° |
| 2026-05-05 10:41 | 56.51350 | 4.89736 | 36036 ft | 404 kts | 249° |
| 2026-05-05 10:41 | 56.49155 | 4.80381 | 36033 ft | 404 kts | 248° |
| 2026-05-05 10:42 | 56.45826 | 4.66346 | 36033 ft | 405 kts | 248° |
| 2026-05-05 10:43 | 56.43606 | 4.56997 | 36028 ft | 405 kts | 248° |
| 2026-05-05 10:43 | 56.41377 | 4.47643 | 36033 ft | 406 kts | 248° |
| 2026-05-05 10:44 | 56.39137 | 4.38285 | 36029 ft | 406 kts | 248° |
| 2026-05-05 10:44 | 56.37264 | 4.30517 | 36027 ft | 406 kts | 248° |
| 2026-05-05 10:45 | 56.35007 | 4.21185 | 36029 ft | 406 kts | 248° |
| 2026-05-05 10:45 | 56.32740 | 4.11841 | 36032 ft | 407 kts | 248° |
| 2026-05-05 10:46 | 56.30463 | 4.02517 | 36029 ft | 407 kts | 248° |
| 2026-05-05 10:46 | 56.28178 | 3.93195 | 36026 ft | 407 kts | 248° |
| 2026-05-05 10:47 | 56.25885 | 3.83876 | 36020 ft | 407 kts | 248° |
| 2026-05-05 10:47 | 56.23652 | 3.74812 | 36010 ft | 407 kts | 248° |
| 2026-05-05 10:48 | 56.21318 | 3.65414 | 36007 ft | 407 kts | 248° |
| 2026-05-05 10:48 | 56.18999 | 3.56130 | 35997 ft | 408 kts | 247° |
| 2026-05-05 10:49 | 56.16652 | 3.46856 | 35987 ft | 408 kts | 246° |
| 2026-05-05 10:49 | 56.14189 | 3.37683 | 35993 ft | 409 kts | 245° |
| 2026-05-05 10:50 | 56.11666 | 3.28544 | 35994 ft | 409 kts | 245° |
| 2026-05-05 10:50 | 56.09154 | 3.19471 | 36002 ft | 409 kts | 245° |
| 2026-05-05 10:51 | 56.06639 | 3.10323 | 36003 ft | 410 kts | 245° |
| 2026-05-05 10:51 | 56.04131 | 3.01156 | 36006 ft | 410 kts | 245° |
| 2026-05-05 10:52 | 56.01610 | 2.92014 | 36012 ft | 410 kts | 245° |
| 2026-05-05 10:52 | 55.99070 | 2.82883 | 36015 ft | 411 kts | 245° |
| 2026-05-05 10:53 | 55.96521 | 2.73764 | 36013 ft | 411 kts | 245° |
| 2026-05-05 10:53 | 55.93959 | 2.64642 | 36013 ft | 411 kts | 245° |
| 2026-05-05 10:54 | 55.91396 | 2.55518 | 36012 ft | 411 kts | 245° |
| 2026-05-05 10:54 | 55.88828 | 2.46410 | 36009 ft | 412 kts | 245° |
| 2026-05-05 10:55 | 55.86246 | 2.37300 | 36010 ft | 412 kts | 245° |
| 2026-05-05 10:55 | 55.83675 | 2.28250 | 36007 ft | 412 kts | 245° |
| 2026-05-05 10:56 | 55.81076 | 2.19155 | 36006 ft | 413 kts | 244° |
| 2026-05-05 10:56 | 55.78461 | 2.10052 | 36003 ft | 413 kts | 244° |
| 2026-05-05 10:57 | 55.75843 | 2.00970 | 36003 ft | 413 kts | 244° |
| 2026-05-05 10:57 | 55.73229 | 1.91894 | 36011 ft | 413 kts | 244° |
| 2026-05-05 10:58 | 55.70596 | 1.82814 | 36005 ft | 414 kts | 244° |
| 2026-05-05 10:58 | 55.67953 | 1.73750 | 36006 ft | 414 kts | 244° |
| 2026-05-05 10:59 | 55.65313 | 1.64745 | 36013 ft | 414 kts | 244° |
| 2026-05-05 10:59 | 55.62657 | 1.55704 | 36013 ft | 414 kts | 244° |
| 2026-05-05 11:00 | 55.59999 | 1.46647 | 36008 ft | 415 kts | 244° |
| 2026-05-05 11:00 | 55.57327 | 1.37609 | 36006 ft | 415 kts | 244° |
| 2026-05-05 11:01 | 55.54642 | 1.28582 | 36010 ft | 415 kts | 244° |
| 2026-05-05 11:01 | 55.51946 | 1.19564 | 36012 ft | 415 kts | 243° |
| 2026-05-05 11:02 | 55.49250 | 1.10561 | 36009 ft | 415 kts | 244° |
| 2026-05-05 11:02 | 55.46547 | 1.01547 | 36013 ft | 415 kts | 243° |
| 2026-05-05 11:03 | 55.43873 | 0.92686 | 36014 ft | 416 kts | 243° |
| 2026-05-05 11:03 | 55.41171 | 0.83751 | 36009 ft | 416 kts | 243° |
| 2026-05-05 11:04 | 55.38448 | 0.74769 | 36017 ft | 416 kts | 243° |
| 2026-05-05 11:04 | 55.35717 | 0.65810 | 36012 ft | 416 kts | 243° |
| 2026-05-05 11:05 | 55.32972 | 0.56856 | 36016 ft | 416 kts | 243° |
| 2026-05-05 11:05 | 55.30225 | 0.47912 | 36019 ft | 416 kts | 243° |
| 2026-05-05 11:06 | 55.27471 | 0.38968 | 36021 ft | 417 kts | 243° |
| 2026-05-05 11:06 | 55.24706 | 0.30033 | 36022 ft | 417 kts | 243° |
| 2026-05-05 11:07 | 55.21929 | 0.21104 | 36022 ft | 417 kts | 243° |
| 2026-05-05 11:07 | 55.19159 | 0.12242 | 36025 ft | 417 kts | 243° |
| 2026-05-05 11:08 | 55.16372 | 0.03339 | 36023 ft | 417 kts | 242° |
| 2026-05-05 11:08 | 55.13582 | -0.05557 | 36027 ft | 417 kts | 242° |
| 2026-05-05 11:09 | 55.10780 | -0.14431 | 36030 ft | 417 kts | 242° |
| 2026-05-05 11:09 | 55.07971 | -0.23302 | 36033 ft | 418 kts | 242° |
| 2026-05-05 11:10 | 55.05154 | -0.32184 | 36037 ft | 419 kts | 242° |
| 2026-05-05 11:10 | 55.02324 | -0.41066 | 36043 ft | 419 kts | 242° |
| 2026-05-05 11:11 | 54.99482 | -0.49925 | 36043 ft | 419 kts | 242° |
| 2026-05-05 11:11 | 54.96633 | -0.58785 | 36044 ft | 419 kts | 242° |
| 2026-05-05 11:12 | 54.93783 | -0.67622 | 36044 ft | 419 kts | 242° |
| 2026-05-05 11:12 | 54.90934 | -0.76445 | 36044 ft | 419 kts | 242° |
| 2026-05-05 11:13 | 54.88065 | -0.85264 | 36044 ft | 419 kts | 242° |
| 2026-05-05 11:13 | 54.85216 | -0.94008 | 36044 ft | 419 kts | 242° |
| 2026-05-05 11:14 | 54.82327 | -1.02827 | 35346 ft | 426 kts | 242° |
| 2026-05-05 11:14 | 54.80851 | -1.07330 | 34559 ft | 431 kts | 241° |
| 2026-05-05 11:14 | 54.79368 | -1.11845 | 33990 ft | 429 kts | 241° |
| 2026-05-05 11:14 | 54.77898 | -1.16308 | 33505 ft | 424 kts | 241° |
| 2026-05-05 11:15 | 54.76441 | -1.20715 | 33031 ft | 420 kts | 241° |
| 2026-05-05 11:15 | 54.74995 | -1.25073 | 32546 ft | 416 kts | 241° |
| 2026-05-05 11:15 | 54.73562 | -1.29386 | 32077 ft | 411 kts | 241° |
| 2026-05-05 11:15 | 54.72143 | -1.33665 | 31607 ft | 407 kts | 242° |
| 2026-05-05 11:16 | 54.70741 | -1.37891 | 31140 ft | 403 kts | 242° |
| 2026-05-05 11:16 | 54.69356 | -1.42062 | 30671 ft | 399 kts | 241° |
| 2026-05-05 11:16 | 54.67978 | -1.46200 | 30217 ft | 395 kts | 241° |
| 2026-05-05 11:16 | 54.66610 | -1.50302 | 29714 ft | 391 kts | 241° |
| 2026-05-05 11:17 | 54.65262 | -1.54346 | 29227 ft | 386 kts | 241° |
| 2026-05-05 11:17 | 54.63932 | -1.58339 | 28732 ft | 383 kts | 241° |
| 2026-05-05 11:17 | 54.62615 | -1.62305 | 28239 ft | 379 kts | 241° |
| 2026-05-05 11:17 | 54.61308 | -1.66245 | 27748 ft | 376 kts | 241° |
| 2026-05-05 11:18 | 54.60014 | -1.70145 | 27265 ft | 373 kts | 241° |
| 2026-05-05 11:18 | 54.58733 | -1.74015 | 26796 ft | 371 kts | 241° |
| 2026-05-05 11:18 | 54.57457 | -1.77875 | 26283 ft | 370 kts | 241° |
| 2026-05-05 11:18 | 54.56186 | -1.81724 | 25778 ft | 369 kts | 241° |
| 2026-05-05 11:19 | 54.54919 | -1.85565 | 25283 ft | 368 kts | 241° |
| 2026-05-05 11:19 | 54.53656 | -1.89396 | 24799 ft | 368 kts | 241° |
| 2026-05-05 11:19 | 54.52397 | -1.93222 | 24321 ft | 367 kts | 241° |
| 2026-05-05 11:19 | 54.51139 | -1.97046 | 23848 ft | 367 kts | 241° |
| 2026-05-05 11:20 | 54.49874 | -2.00861 | 23334 ft | 366 kts | 239° |
| 2026-05-05 11:20 | 54.48211 | -2.04152 | 22768 ft | 368 kts | 220° |
| 2026-05-05 11:20 | 54.45963 | -2.06256 | 22236 ft | 371 kts | 202° |
| 2026-05-05 11:20 | 54.43515 | -2.07651 | 21700 ft | 370 kts | 200° |
| 2026-05-05 11:21 | 54.41066 | -2.08986 | 21179 ft | 369 kts | 200° |
| 2026-05-05 11:21 | 54.38626 | -2.10312 | 20664 ft | 367 kts | 200° |
| 2026-05-05 11:21 | 54.36191 | -2.11580 | 20175 ft | 366 kts | 195° |
| 2026-05-05 11:21 | 54.33679 | -2.11955 | 20007 ft | 357 kts | 183° |
| 2026-05-05 11:22 | 54.31260 | -2.11983 | 19993 ft | 352 kts | 183° |
| 2026-05-05 11:22 | 54.28822 | -2.12007 | 19721 ft | 347 kts | 183° |
| 2026-05-05 11:22 | 54.26418 | -2.12025 | 19320 ft | 344 kts | 183° |
| 2026-05-05 11:22 | 54.24029 | -2.12039 | 18894 ft | 342 kts | 183° |
| 2026-05-05 11:23 | 54.21659 | -2.12054 | 18468 ft | 340 kts | 183° |
| 2026-05-05 11:23 | 54.19302 | -2.12154 | 18002 ft | 336 kts | 189° |
| 2026-05-05 11:23 | 54.17052 | -2.13037 | 17576 ft | 329 kts | 203° |
| 2026-05-05 11:23 | 54.15037 | -2.14782 | 17157 ft | 322 kts | 217° |
| 2026-05-05 11:24 | 54.13353 | -2.17250 | 16753 ft | 317 kts | 230° |
| 2026-05-05 11:24 | 54.11990 | -2.20160 | 16333 ft | 313 kts | 234° |
| 2026-05-05 11:24 | 54.10657 | -2.23089 | 15927 ft | 311 kts | 233° |
| 2026-05-05 11:24 | 54.09331 | -2.25990 | 15526 ft | 310 kts | 233° |
| 2026-05-05 11:25 | 54.08005 | -2.28869 | 15098 ft | 309 kts | 232° |
| 2026-05-05 11:25 | 54.06358 | -2.31313 | 14336 ft | 323 kts | 210° |
| 2026-05-05 11:25 | 54.04268 | -2.32477 | 14009 ft | 310 kts | 188° |
| 2026-05-05 11:25 | 54.02191 | -2.32645 | 13689 ft | 293 kts | 184° |
| 2026-05-05 11:26 | 54.00146 | -2.32775 | 13211 ft | 295 kts | 184° |
| 2026-05-05 11:26 | 53.98088 | -2.32915 | 12730 ft | 297 kts | 184° |
| 2026-05-05 11:26 | 53.96028 | -2.33057 | 12265 ft | 294 kts | 184° |
| 2026-05-05 11:26 | 53.94004 | -2.33194 | 11798 ft | 290 kts | 184° |
| 2026-05-05 11:27 | 53.91998 | -2.33326 | 11346 ft | 287 kts | 184° |
| 2026-05-05 11:27 | 53.90015 | -2.33452 | 10895 ft | 284 kts | 184° |
| 2026-05-05 11:27 | 53.88055 | -2.33578 | 10449 ft | 278 kts | 184° |
| 2026-05-05 11:27 | 53.86146 | -2.33701 | 10017 ft | 271 kts | 184° |
| 2026-05-05 11:28 | 53.84271 | -2.33820 | 9539 ft | 268 kts | 184° |
| 2026-05-05 11:28 | 53.82413 | -2.33937 | 9061 ft | 267 kts | 184° |
| 2026-05-05 11:28 | 53.80546 | -2.34056 | 8599 ft | 271 kts | 184° |
| 2026-05-05 11:28 | 53.78668 | -2.34352 | 8130 ft | 273 kts | 195° |
| 2026-05-05 11:29 | 53.76877 | -2.35254 | 7752 ft | 261 kts | 200° |
| 2026-05-05 11:29 | 53.75159 | -2.36237 | 7513 ft | 260 kts | 200° |
| 2026-05-05 11:29 | 53.73457 | -2.37230 | 7260 ft | 258 kts | 200° |
| 2026-05-05 11:29 | 53.71789 | -2.38211 | 7083 ft | 256 kts | 200° |
| 2026-05-05 11:30 | 53.70111 | -2.39205 | 7042 ft | 256 kts | 200° |
| 2026-05-05 11:30 | 53.68400 | -2.40222 | 7046 ft | 257 kts | 200° |
| 2026-05-05 11:30 | 53.66734 | -2.41213 | 7048 ft | 258 kts | 200° |
| 2026-05-05 11:30 | 53.65045 | -2.42221 | 7021 ft | 259 kts | 200° |
| 2026-05-05 11:31 | 53.63346 | -2.43233 | 6767 ft | 258 kts | 200° |
| 2026-05-05 11:31 | 53.61661 | -2.44242 | 6507 ft | 256 kts | 200° |
| 2026-05-05 11:31 | 53.59988 | -2.45250 | 6296 ft | 255 kts | 200° |
| 2026-05-05 11:31 | 53.58321 | -2.46256 | 6085 ft | 255 kts | 200° |
| 2026-05-05 11:32 | 53.56655 | -2.47261 | 5873 ft | 254 kts | 200° |
| 2026-05-05 11:32 | 53.54993 | -2.48260 | 5666 ft | 254 kts | 200° |
| 2026-05-05 11:32 | 53.53328 | -2.49256 | 5458 ft | 253 kts | 200° |
| 2026-05-05 11:32 | 53.51667 | -2.50244 | 5246 ft | 253 kts | 200° |
| 2026-05-05 11:33 | 53.50007 | -2.51227 | 5080 ft | 253 kts | 200° |
| 2026-05-05 11:33 | 53.48347 | -2.52205 | 4993 ft | 253 kts | 200° |
| 2026-05-05 11:33 | 53.46681 | -2.53180 | 5003 ft | 254 kts | 200° |
| 2026-05-05 11:33 | 53.45013 | -2.54155 | 5011 ft | 255 kts | 200° |
| 2026-05-05 11:34 | 53.43335 | -2.55135 | 4990 ft | 256 kts | 200° |
| 2026-05-05 11:34 | 53.41650 | -2.56110 | 4721 ft | 255 kts | 200° |
| 2026-05-05 11:34 | 53.39984 | -2.57070 | 4458 ft | 251 kts | 200° |
| 2026-05-05 11:34 | 53.38893 | -2.57694 | 4281 ft | 249 kts | 200° |
| 2026-05-05 11:35 | 53.37263 | -2.58622 | 4065 ft | 245 kts | 200° |
| 2026-05-05 11:35 | 53.35678 | -2.59517 | 4001 ft | 234 kts | 200° |
| 2026-05-05 11:35 | 53.34151 | -2.60372 | 4000 ft | 231 kts | 200° |
| 2026-05-05 11:35 | 53.32637 | -2.61226 | 4034 ft | 231 kts | 200° |
| 2026-05-05 11:36 | 53.31109 | -2.62093 | 4009 ft | 231 kts | 200° |
| 2026-05-05 11:36 | 53.29590 | -2.62951 | 4007 ft | 231 kts | 200° |
| 2026-05-05 11:36 | 53.28070 | -2.63807 | 4007 ft | 231 kts | 200° |
| 2026-05-05 11:36 | 53.26547 | -2.64660 | 4004 ft | 231 kts | 200° |
| 2026-05-05 11:37 | 53.25020 | -2.65501 | 4006 ft | 232 kts | 196° |
| 2026-05-05 11:37 | 53.23420 | -2.65514 | 3985 ft | 234 kts | 164° |
| 2026-05-05 11:37 | 53.21998 | -2.64256 | 3724 ft | 230 kts | 143° |
| 2026-05-05 11:37 | 53.20738 | -2.62661 | 3470 ft | 225 kts | 140° |
| 2026-05-05 11:38 | 53.19668 | -2.60843 | 3189 ft | 218 kts | 116° |
| 2026-05-05 11:38 | 53.19435 | -2.58492 | 3009 ft | 201 kts | 70° |
| 2026-05-05 11:38 | 53.20204 | -2.56812 | 3017 ft | 176 kts | 28° |
| 2026-05-05 11:38 | 53.21209 | -2.55724 | 3001 ft | 174 kts | 43° |
| 2026-05-05 11:39 | 53.21957 | -2.54136 | 3009 ft | 173 kts | 47° |
| 2026-05-05 11:39 | 53.22721 | -2.52588 | 3005 ft | 173 kts | 46° |
| 2026-05-05 11:39 | 53.23483 | -2.51037 | 3007 ft | 172 kts | 47° |
| 2026-05-05 11:39 | 53.24243 | -2.49484 | 2971 ft | 174 kts | 47° |
| 2026-05-05 11:40 | 53.24997 | -2.47939 | 2837 ft | 166 kts | 47° |
| 2026-05-05 11:40 | 53.25699 | -2.46495 | 2620 ft | 155 kts | 47° |
| 2026-05-05 11:40 | 53.26372 | -2.45114 | 2420 ft | 152 kts | 45° |
| 2026-05-05 11:40 | 53.27038 | -2.43750 | 2207 ft | 151 kts | 46° |
| 2026-05-05 11:41 | 53.27702 | -2.42386 | 1993 ft | 151 kts | 46° |
| 2026-05-05 11:41 | 53.28354 | -2.41046 | 1793 ft | 149 kts | 45° |
| 2026-05-05 11:41 | 53.29002 | -2.39697 | 1591 ft | 150 kts | 46° |
| 2026-05-05 11:41 | 53.29675 | -2.38342 | 1430 ft | 152 kts | 45° |
| 2026-05-05 11:42 | 53.30343 | -2.36951 | 1219 ft | 152 kts | 47° |
| 2026-05-05 11:42 | 53.30995 | -2.35579 | 963 ft | 152 kts | 46° |
| 2026-05-05 11:42 | 53.31667 | -2.34220 | 742 ft | 149 kts | 47° |
| 2026-05-05 11:42 | 53.32312 | -2.32883 | 511 ft | 149 kts | 47° |
| 2026-05-05 11:43 | 53.32962 | -2.31533 | 304 ft | 149 kts | 47° |
| 2026-05-05 11:43 | 53.33594 | -2.30248 | 209 ft | 130 kts | 47° |
| 2026-05-05 11:43 | 53.34072 | -2.29271 | 220 ft | 84 kts | 50° |
| 2026-05-05 11:43 | 53.34327 | -2.28749 | 220 ft | 29 kts | 50° |
| 2026-05-05 11:44 | 53.34484 | -2.28555 | 224 ft | 27 kts | 26° |
| 2026-05-05 11:44 | 53.34651 | -2.28444 | 227 ft | 15 kts | 23° |
| 2026-05-05 11:44 | 53.34739 | -2.28351 | 229 ft | 15 kts | 46° |
| 2026-05-05 11:44 | 53.34804 | -2.28219 | 231 ft | 9 kts | 51° |
| 2026-05-05 11:45 | 53.34845 | -2.28130 | 232 ft | 10 kts | 52° |
| 2026-05-05 11:45 | 53.34890 | -2.28035 | 234 ft | 11 kts | 49° |
| 2026-05-05 11:45 | 53.34938 | -2.27938 | 238 ft | 11 kts | 52° |
| 2026-05-05 11:45 | 53.34990 | -2.27833 | 237 ft | 12 kts | 50° |
| 2026-05-05 11:46 | 53.35046 | -2.27720 | 238 ft | 13 kts | 51° |
| 2026-05-05 11:46 | 53.35105 | -2.27595 | 240 ft | 14 kts | 51° |
| 2026-05-05 11:46 | 53.35168 | -2.27461 | 242 ft | 15 kts | 51° |
| 2026-05-05 11:46 | 53.35237 | -2.27324 | 245 ft | 16 kts | 50° |
| 2026-05-05 11:47 | 53.35320 | -2.27209 | 247 ft | 16 kts | 22° |
| 2026-05-05 11:47 | 53.35410 | -2.27248 | 253 ft | 13 kts | 323° |
| 2026-05-05 11:47 | 53.35477 | -2.27346 | 256 ft | 13 kts | 322° |
| 2026-05-05 11:47 | 53.35559 | -2.27449 | 256 ft | 15 kts | 322° |
| 2026-05-05 11:48 | 53.35701 | -2.27627 | 256 ft | 0 kts | 332° |
| 2026-05-05 11:48 | 53.35702 | -2.27628 | 256 ft | 0 kts | 338° |
| 2026-05-05 11:48 | 53.35721 | -2.27639 | 256 ft | 7 kts | 340° |
| 2026-05-05 11:49 | 53.35789 | -2.27702 | 255 ft | 15 kts | 314° |
| 2026-05-05 11:49 | 53.35866 | -2.27835 | 255 ft | 16 kts | 332° |
| 2026-05-05 11:49 | 53.35996 | -2.27837 | 255 ft | 7 kts | 5° |
| 2026-05-05 11:49 | 53.36050 | -2.27842 | 255 ft | 11 kts | 341° |
| 2026-05-05 11:50 | 53.36119 | -2.27946 | 255 ft | 17 kts | 316° |
| 2026-05-05 11:50 | 53.36191 | -2.28065 | 255 ft | 8 kts | 318° |
| 2026-05-05 11:50 | 53.36262 | -2.28079 | 255 ft | 14 kts | 11° |
| 2026-05-05 11:50 | 53.36357 | -2.27992 | 255 ft | 7 kts | 45° |
| 2026-05-05 11:51 | 53.36391 | -2.27946 | 255 ft | 9 kts | 26° |
| 2026-05-05 11:51 | 53.36434 | -2.27936 | 255 ft | 5 kts | 40° |
| 2026-05-05 11:51 | 53.36477 | -2.27865 | 255 ft | 12 kts | 45° |
| 2026-05-05 11:51 | 53.36493 | -2.27838 | 255 ft | 0 kts | 45° |